Have a Safe July 4th! 

Flight Track Log - Related Links

Times and Time Zones

All times are in EST time to prevent confusion due to time zone crossing. See the SWA3530 flight status page for this flight to view local times or setup timezone preferences in your user account.

Time Position Orientation Groundspeed Altitude Reporting Facility
EST Latitude Longitude Course Direction KTS MPH feet Rate Location/Type
Wed 02:21:03 PM 29.6547 -95.2967 313° West 149 171 900  Level Houston Center
Wed 02:22:10 PM 29.6911 -95.3408 313° West 210 242 4,000 2,457 Climbing Houston Center
Wed 02:23:10 PM 29.7081 -95.4108 286° West 220 253 6,100 2,200 Climbing Houston Center
Wed 02:24:10 PM 29.7161 -95.4947 276° West 240 276 8,400 2,500 Climbing Houston Center
Wed 02:26:10 PM 29.7300 -95.6603 276° West 259 298 13,600 2,567 Climbing Houston Center
Wed 02:27:10 PM 29.7378 -95.7492 276° West 266 306 16,100 2,100 Climbing Houston Center
Wed 02:28:10 PM 29.7450 -95.8569 274° West 295 339 17,800 2,250 Climbing Houston Center
Wed 02:29:10 PM 29.7561 -95.9722 276° West 336 387 20,600 2,650 Climbing Houston Center
Wed 02:30:10 PM 29.7689 -96.0925 277° West 368 423 23,100 2,571 Climbing Houston Center
Wed 02:31:09 PM 29.7794 -96.2150 276° West 381 438 25,700 2,400 Climbing Houston Center
Wed 02:32:10 PM 29.7881 -96.3278 275° West 380 437 27,900 1,140 Climbing Houston Center
Wed 02:33:10 PM 29.7967 -96.4381 275° West 366 421 28,000 50 Climbing Houston Center
Wed 02:34:10 PM 29.8053 -96.5533 275° West 366 421 28,000  Level Houston Center
Wed 02:35:10 PM 29.8133 -96.6711 275° West 366 421 28,000  Level Houston Center
Wed 02:36:10 PM 29.8217 -96.7864 275° West 371 427 28,000  Level Houston Center
Wed 02:37:10 PM 29.8317 -96.9042 276° West 371 427 28,000  Level Houston Center
Wed 02:38:10 PM 29.8397 -97.0217 275° West 371 427 28,000 -700 Level Houston Center
Wed 02:39:10 PM 29.8475 -97.1369 274° West 371 427 26,600 -1,750 Descending Houston Center
Wed 02:40:10 PM 29.8556 -97.2500 275° West 365 420 24,500 -2,100 Descending Houston Center
Wed 02:41:10 PM 29.8633 -97.3606 275° West 365 420 22,400 -2,100 Descending Houston Center
Wed 02:42:10 PM 29.8711 -97.4733 275° West 359 413 20,300 -1,900 Descending Houston Center
Wed 02:43:10 PM 29.8775 -97.5694 274° West 348 400 18,600 -1,800 Descending Houston Center
Wed 02:43:30 PM 29.8797 -97.6128 273° West 331 381 17,900 -1,900 Descending Houston Center
Wed 02:44:10 PM 29.8850 -97.6825 275° West 336 387 16,700 -1,973 Descending Houston Center
Wed 02:44:43 PM 29.8867 -97.7400 272° West 317 365 15,500 -2,100 Descending Houston Center
Wed 02:45:10 PM 29.8914 -97.7739 279° West 329 379 14,600 -2,200 Descending Houston Center
Wed 02:45:43 PM 29.8967 -97.8411 275° West 317 365 13,300 -1,600 Descending Houston Center
Wed 02:46:10 PM 29.8883 -97.8836 257° West 323 372 13,000 -689 Descending Houston Center
Wed 02:46:44 PM 29.8672 -97.9350 245° Southwest 306 352 12,600 -1,300 Descending Houston Center
Wed 02:47:10 PM 29.8556 -97.9608 242° Southwest 305 351 11,700 -1,377 Descending Houston Center
Wed 02:47:45 PM 29.8300 -98.0214 244° Southwest 300 345 11,200 -1,100 Descending Houston Center
Wed 02:48:10 PM 29.8178 -98.0542 247° West 295 339 10,600 -1,377 Descending Houston Center
Wed 02:48:46 PM 29.7967 -98.1053 245° Southwest 269 310 9,800 -1,180 Descending Houston Center
Wed 02:49:11 PM 29.7897 -98.1217 244° Southwest 275 316 9,400 -1,750 Descending Houston Center
Wed 02:49:58 PM 29.7592 -98.1914 243° Southwest 261 300 7,700 -1,789 Descending Houston Center
Wed 02:51:05 PM 29.7214 -98.2822 244° Southwest 276 318 6,000 -773 Descending Houston Center
Wed 02:52:10 PM 29.6606 -98.3308 215° Southwest 256 295 6,000 -384 Level Houston Center
Wed 02:53:10 PM 29.5950 -98.3506 195° South 256 295 5,200 -700 Descending Houston Center
Wed 02:54:10 PM 29.5231 -98.3700 193° South 249 287 4,600 -514 Descending Houston Center
Wed 02:54:55 PM 29.4803 -98.3503 158° South 197 227 4,300 -300 Descending Houston Center
Wed 02:55:10 PM 29.4722 -98.3450 150° Southeast 212 244 4,300 -1,040 Level Houston Center
Wed 02:56:10 PM 29.4661 -98.3853 260° West 120 138 3,000 -1,100 Descending Houston Center
Wed 02:57:10 PM 29.4875 -98.4175 307° West 109 125 2,100 -900 Descending Houston Center
Wed 02:58:10 PM 29.5147 -98.4575 308° West 146 168 1,200 -900 Descending Houston Center
Wed 03:00:00 PM 29.5333 -98.4667 16° North  Level FlightAware Approximate

Login

Don't have an account? Register now (free) for customized features, flight alerts, and more!